Time;durP1;ratioP1;P1;durP2;ratioP2;P2;SDS_P1;SDS_P2;PMS_P1;PMS_P2;Temp;Humidity;BMP_temperature;BMP_pressure;BME280_temperature;BME280_humidity;BME280_pressure;Samples;Min_cycle;Max_cycle;Signal;HPM_P1;HPM_P2
2022/01/21 00:02:04;;;;;;;1.17;0.40;;;;;;;;;;4944843;29;20059;-77
2022/01/21 00:04:34;;;;;;;4.57;0.82;;;;;;;;;;4946284;29;20062;-77
2022/01/21 00:07:05;;;;;;;1.58;0.52;;;;;;;;;;4943192;29;20044;-77
2022/01/21 00:09:34;;;;;;;4.30;1.30;;;;;;;;;;4944493;29;20044;-77
2022/01/21 00:12:03;;;;;;;1.83;0.50;;;;;;;;;;4949531;29;20047;-77
2022/01/21 00:14:32;;;;;;;1.30;0.60;;;;;;;;;;4947292;29;20043;-78
2022/01/21 00:17:02;;;;;;;2.65;0.43;;;;;;;;;;4927755;29;20060;-78
2022/01/21 00:19:41;;;;;;;2.25;0.45;;;;;;;;;;4941684;29;20043;-78
2022/01/21 00:30:34;;;;;;;2.05;0.80;;;;;;;;;;4942180;29;20044;-78
2022/01/21 00:33:06;;;;;;;1.67;0.70;;;;;;;;;;4946322;29;20040;-78
2022/01/21 00:35:38;;;;;;;1.07;0.57;;;;;;;;;;4945126;29;20048;-78
2022/01/21 00:38:09;;;;;;;0.60;0.20;;;;;;;;;;4943409;29;20107;-77
2022/01/21 00:40:38;;;;;;;1.48;0.57;;;;;;;;;;4944756;29;20075;-78
2022/01/21 00:43:19;;;;;;;0.57;0.20;;;;;;;;;;4944144;29;20389;-78
2022/01/21 00:45:49;;;;;;;1.08;0.32;;;;;;;;;;4941534;28;20070;-77
2022/01/21 00:48:17;;;;;;;0.73;0.13;;;;;;;;;;4942369;29;20067;-77
2022/01/21 00:50:47;;;;;;;1.60;0.57;;;;;;;;;;4942596;29;20462;-78
2022/01/21 00:53:17;;;;;;;0.60;0.30;;;;;;;;;;4926110;29;20054;-77
2022/01/21 00:55:46;;;;;;;0.40;0.00;;;;;;;;;;4941191;29;20139;-77
2022/01/21 00:58:15;;;;;;;8.07;0.77;;;;;;;;;;4942746;29;20131;-77
2022/01/21 01:00:45;;;;;;;0.57;0.10;;;;;;;;;;4934300;28;20097;-77
2022/01/21 01:03:15;;;;;;;1.10;0.40;;;;;;;;;;4942823;29;20467;-77
2022/01/21 01:05:45;;;;;;;1.63;0.28;;;;;;;;;;4937602;29;20067;-77
2022/01/21 01:08:13;;;;;;;0.40;0.10;;;;;;;;;;4922172;29;20042;-76
2022/01/21 01:11:14;;;;;;;0.60;0.13;;;;;;;;;;4938245;29;20043;-76
2022/01/21 01:22:39;;;;;;;0.60;0.10;;;;;;;;;;4943957;29;20051;-76
2022/01/21 01:27:57;;;;;;;0.47;0.10;;;;;;;;;;4933479;29;20455;-76
2022/01/21 01:30:32;;;;;;;0.68;0.40;;;;;;;;;;4938170;28;20043;-76
2022/01/21 01:33:02;;;;;;;1.27;0.20;;;;;;;;;;4935119;29;20056;-76
2022/01/21 01:35:33;;;;;;;3.67;1.08;;;;;;;;;;4929872;29;20053;-77
2022/01/21 01:38:39;;;;;;;1.05;0.30;;;;;;;;;;4933657;29;20063;-76
2022/01/21 01:41:14;;;;;;;0.30;0.00;;;;;;;;;;4915319;29;20063;-77
2022/01/21 01:49:28;;;;;;;0.45;0.10;;;;;;;;;;4939839;29;20189;-77
2022/01/21 01:51:57;;;;;;;1.85;0.40;;;;;;;;;;4932753;29;20040;-77
2022/01/21 01:54:30;;;;;;;0.43;0.10;;;;;;;;;;4923025;29;20039;-77
2022/01/21 01:57:24;;;;;;;1.17;0.38;;;;;;;;;;4938220;29;20102;-76
2022/01/21 02:00:44;;;;;;;0.60;0.20;;;;;;;;;;4934087;29;20051;-77
2022/01/21 02:03:17;;;;;;;0.30;0.10;;;;;;;;;;4939674;29;20062;-77
2022/01/21 02:05:46;;;;;;;1.10;0.10;;;;;;;;;;4937391;29;20062;-77
2022/01/21 02:08:16;;;;;;;0.20;0.00;;;;;;;;;;4937352;29;20491;-77
2022/01/21 02:10:45;;;;;;;0.38;0.05;;;;;;;;;;4921165;29;20152;-77
2022/01/21 02:13:22;;;;;;;3.88;0.20;;;;;;;;;;4940178;29;20091;-77
2022/01/21 02:15:58;;;;;;;0.28;0.10;;;;;;;;;;4913257;29;20410;-78
2022/01/21 02:21:32;;;;;;;0.60;0.10;;;;;;;;;;4939451;29;20051;-77
2022/01/21 02:24:03;;;;;;;1.55;0.50;;;;;;;;;;4936589;29;20070;-77
2022/01/21 02:26:31;;;;;;;0.47;0.13;;;;;;;;;;4940286;29;20058;-77
2022/01/21 02:29:01;;;;;;;2.63;0.10;;;;;;;;;;4938583;29;20051;-78
2022/01/21 02:31:32;;;;;;;0.60;0.30;;;;;;;;;;4939436;29;20126;-77
2022/01/21 02:34:01;;;;;;;6.40;0.40;;;;;;;;;;4918905;29;20040;-77
2022/01/21 02:36:31;;;;;;;0.45;0.10;;;;;;;;;;4914830;29;20062;-77
2022/01/21 02:39:01;;;;;;;0.77;0.13;;;;;;;;;;4937807;29;20096;-77
2022/01/21 02:41:30;;;;;;;0.95;0.47;;;;;;;;;;4935384;29;20062;-78
2022/01/21 02:44:00;;;;;;;1.30;0.20;;;;;;;;;;4939203;29;20051;-78
2022/01/21 02:46:36;;;;;;;0.70;0.20;;;;;;;;;;4934434;29;20418;-78
2022/01/21 02:49:06;;;;;;;0.77;0.10;;;;;;;;;;4929887;29;20043;-77
2022/01/21 02:51:37;;;;;;;0.63;0.10;;;;;;;;;;4936416;29;20486;-78
2022/01/21 02:54:06;;;;;;;1.40;0.30;;;;;;;;;;4919598;29;20399;-77
2022/01/21 02:56:36;;;;;;;2.65;0.82;;;;;;;;;;4936062;29;20111;-77
2022/01/21 02:59:05;;;;;;;0.90;0.23;;;;;;;;;;4937550;29;20070;-77
2022/01/21 03:01:35;;;;;;;0.47;0.10;;;;;;;;;;4934855;29;20409;-77
2022/01/21 03:04:06;;;;;;;0.80;0.28;;;;;;;;;;4937765;29;21484;-77
2022/01/21 03:06:38;;;;;;;0.75;0.20;;;;;;;;;;4937308;29;20039;-76
2022/01/21 03:09:10;;;;;;;3.40;0.20;;;;;;;;;;4937999;29;20074;-77
2022/01/21 03:11:39;;;;;;;4.87;0.40;;;;;;;;;;4936822;29;20040;-77
2022/01/21 03:14:11;;;;;;;0.55;0.13;;;;;;;;;;4935749;29;20048;-77
2022/01/21 03:16:50;;;;;;;1.45;0.82;;;;;;;;;;4925536;29;20075;-77
2022/01/21 03:19:24;;;;;;;1.05;0.35;;;;;;;;;;4919916;29;20040;-77
2022/01/21 03:21:55;;;;;;;3.03;0.20;;;;;;;;;;4907497;29;20047;-77
2022/01/21 03:24:30;;;;;;;0.30;0.10;;;;;;;;;;4922222;29;20043;-77
2022/01/21 03:27:01;;;;;;;1.13;0.30;;;;;;;;;;4918962;29;20549;-77
2022/01/21 03:29:34;;;;;;;0.70;0.10;;;;;;;;;;4922060;29;20039;-77
2022/01/21 03:32:02;;;;;;;0.95;0.30;;;;;;;;;;4918011;29;20510;-77
2022/01/21 03:34:45;;;;;;;0.35;0.03;;;;;;;;;;4919644;29;20040;-77
2022/01/21 03:37:20;;;;;;;0.90;0.73;;;;;;;;;;4933120;29;20051;-77
2022/01/21 03:39:49;;;;;;;0.70;0.10;;;;;;;;;;4937614;29;20795;-77
2022/01/21 03:42:19;;;;;;;4.93;0.40;;;;;;;;;;4920848;29;20063;-77
2022/01/21 03:44:48;;;;;;;1.00;0.30;;;;;;;;;;4932809;29;20067;-77
2022/01/21 03:47:17;;;;;;;0.90;0.38;;;;;;;;;;4938095;28;20060;-78
2022/01/21 03:49:53;;;;;;;0.87;0.30;;;;;;;;;;4942056;29;20056;-78
2022/01/21 03:52:24;;;;;;;6.03;0.80;;;;;;;;;;4926378;29;20091;-77
2022/01/21 03:54:53;;;;;;;2.75;0.55;;;;;;;;;;4935588;29;20039;-77
2022/01/21 04:03:12;;;;;;;0.63;0.10;;;;;;;;;;4934479;29;20059;-77
2022/01/21 04:05:41;;;;;;;1.42;0.30;;;;;;;;;;4934614;29;20039;-78
2022/01/21 04:08:12;;;;;;;2.58;0.20;;;;;;;;;;4930789;29;20050;-78
2022/01/21 04:10:48;;;;;;;1.77;0.50;;;;;;;;;;4930559;29;20051;-78
2022/01/21 04:13:21;;;;;;;0.60;0.10;;;;;;;;;;4921940;29;20115;-78
2022/01/21 04:15:54;;;;;;;1.43;0.50;;;;;;;;;;4922066;29;20056;-77
2022/01/21 04:18:24;;;;;;;10.52;0.75;;;;;;;;;;4937237;29;20043;-76
2022/01/21 04:21:03;;;;;;;1.20;0.22;;;;;;;;;;4932295;29;20048;-77
2022/01/21 04:23:42;;;;;;;4.60;0.30;;;;;;;;;;4939313;29;20466;-77
2022/01/21 04:26:17;;;;;;;0.70;0.35;;;;;;;;;;4916916;29;20070;-76
2022/01/21 04:28:45;;;;;;;0.30;0.10;;;;;;;;;;4935486;29;20062;-77
2022/01/21 04:31:16;;;;;;;2.08;0.70;;;;;;;;;;4936846;29;20395;-76
2022/01/21 04:33:49;;;;;;;2.78;1.23;;;;;;;;;;4936329;29;20044;-76
2022/01/21 04:36:18;;;;;;;0.70;0.20;;;;;;;;;;4934910;29;20051;-76
2022/01/21 04:38:52;;;;;;;1.48;0.55;;;;;;;;;;4931156;29;20478;-78
2022/01/21 04:41:39;;;;;;;1.13;0.20;;;;;;;;;;4936627;29;20086;-77
2022/01/21 04:49:38;;;;;;;5.03;1.08;;;;;;;;;;4921250;29;20047;-78
2022/01/21 04:52:13;;;;;;;1.52;0.60;;;;;;;;;;4919632;29;20048;-78
2022/01/21 04:54:48;;;;;;;0.70;0.20;;;;;;;;;;4919389;29;20047;-78
2022/01/21 04:57:44;;;;;;;1.77;0.28;;;;;;;;;;4929455;29;20042;-78
2022/01/21 05:00:15;;;;;;;0.88;0.40;;;;;;;;;;4920946;29;20099;-78
2022/01/21 05:06:03;;;;;;;1.92;0.55;;;;;;;;;;4930933;29;20051;-79
2022/01/21 05:08:45;;;;;;;1.07;0.20;;;;;;;;;;4930904;29;20055;-79
2022/01/21 05:11:19;;;;;;;0.60;0.15;;;;;;;;;;4936539;29;20078;-79
2022/01/21 05:13:56;;;;;;;0.70;0.20;;;;;;;;;;4878379;29;20376;-79
2022/01/21 05:16:34;;;;;;;2.20;0.82;;;;;;;;;;4926574;29;20047;-78
2022/01/21 05:19:07;;;;;;;1.00;0.45;;;;;;;;;;4925145;29;20158;-79
2022/01/21 05:21:56;;;;;;;10.80;0.97;;;;;;;;;;4940034;29;20107;-80
2022/01/21 05:24:29;;;;;;;1.65;0.43;;;;;;;;;;4930842;29;20055;-76
2022/01/21 05:27:01;;;;;;;1.38;0.40;;;;;;;;;;4923104;29;20498;-80
2022/01/21 05:29:44;;;;;;;0.60;0.10;;;;;;;;;;4922425;29;21391;-79
2022/01/21 05:32:22;;;;;;;5.40;0.98;;;;;;;;;;4939128;29;20039;-80
2022/01/21 05:35:08;;;;;;;1.47;0.93;;;;;;;;;;4939796;29;20393;-79
2022/01/21 05:37:53;;;;;;;1.42;0.60;;;;;;;;;;4932039;29;20111;-78
2022/01/21 05:40:47;;;;;;;3.85;0.70;;;;;;;;;;4930387;29;20060;-77
2022/01/21 05:43:33;;;;;;;2.20;0.50;;;;;;;;;;4918709;29;20040;-81
2022/01/21 05:46:23;;;;;;;1.25;0.43;;;;;;;;;;4950926;29;20047;-78
2022/01/21 05:49:24;;;;;;;0.77;0.23;;;;;;;;;;4925300;29;20060;-74
2022/01/21 05:52:36;;;;;;;0.85;0.28;;;;;;;;;;4922501;29;20040;-77
2022/01/21 05:55:22;;;;;;;4.95;0.55;;;;;;;;;;4915141;29;20505;-75
2022/01/21 05:58:18;;;;;;;2.17;0.98;;;;;;;;;;4926146;29;20060;-79
2022/01/21 06:01:13;;;;;;;2.22;0.45;;;;;;;;;;4902101;29;20047;-78
2022/01/21 06:03:44;;;;;;;1.37;0.60;;;;;;;;;;4933153;29;20055;-76
2022/01/21 06:06:13;;;;;;;2.22;0.68;;;;;;;;;;4913187;29;20473;-76
2022/01/21 06:08:42;;;;;;;3.35;0.45;;;;;;;;;;4938160;29;20048;-79
2022/01/21 06:11:18;;;;;;;5.90;0.68;;;;;;;;;;4933318;29;20056;-75
2022/01/21 06:13:50;;;;;;;2.05;0.52;;;;;;;;;;4920147;29;20031;-75
2022/01/21 06:16:19;;;;;;;1.47;0.80;;;;;;;;;;4927869;29;20083;-76
2022/01/21 06:18:50;;;;;;;2.30;0.80;;;;;;;;;;4928343;29;20047;-75
2022/01/21 06:21:19;;;;;;;0.95;0.35;;;;;;;;;;4914270;29;20048;-75
2022/01/21 06:23:47;;;;;;;4.07;0.68;;;;;;;;;;4941293;29;20085;-76
2022/01/21 06:26:16;;;;;;;2.30;0.65;;;;;;;;;;4935833;29;20060;-77
2022/01/21 06:28:45;;;;;;;2.87;0.90;;;;;;;;;;4939665;29;20044;-75
2022/01/21 06:31:16;;;;;;;10.38;1.08;;;;;;;;;;4936747;29;20062;-75
2022/01/21 06:33:45;;;;;;;1.20;0.38;;;;;;;;;;4928348;29;20050;-75
2022/01/21 06:36:15;;;;;;;4.05;0.95;;;;;;;;;;4940704;29;20039;-75
2022/01/21 06:38:44;;;;;;;5.88;1.23;;;;;;;;;;4929162;29;20446;-75
2022/01/21 06:41:40;;;;;;;2.47;0.60;;;;;;;;;;4941540;29;20054;-75
2022/01/21 06:44:08;;;;;;;9.07;1.30;;;;;;;;;;4921579;29;20414;-75
2022/01/21 06:46:37;;;;;;;1.13;0.57;;;;;;;;;;4939468;29;20098;-75
2022/01/21 06:49:06;;;;;;;1.58;0.43;;;;;;;;;;4937580;29;20051;-75
2022/01/21 06:51:36;;;;;;;4.43;1.23;;;;;;;;;;4936314;29;20050;-75
2022/01/21 06:54:05;;;;;;;3.47;0.73;;;;;;;;;;4927367;29;20044;-75
2022/01/21 06:56:34;;;;;;;3.30;0.93;;;;;;;;;;4930391;29;20040;-75
2022/01/21 06:59:08;;;;;;;6.55;1.17;;;;;;;;;;4940851;29;20050;-74
2022/01/21 07:01:37;;;;;;;2.50;1.13;;;;;;;;;;4929702;29;20413;-75
2022/01/21 07:04:06;;;;;;;4.30;0.82;;;;;;;;;;4939656;29;20051;-75
2022/01/21 07:06:37;;;;;;;2.93;1.07;;;;;;;;;;4936596;29;20075;-75
2022/01/21 07:09:06;;;;;;;5.57;0.93;;;;;;;;;;4936567;29;20487;-75
2022/01/21 07:11:35;;;;;;;5.20;1.13;;;;;;;;;;4940313;29;20035;-75
2022/01/21 07:14:04;;;;;;;2.30;0.80;;;;;;;;;;4940982;29;20050;-75
2022/01/21 07:16:33;;;;;;;1.77;0.45;;;;;;;;;;4942706;29;20102;-75
2022/01/21 07:19:02;;;;;;;2.17;0.70;;;;;;;;;;4925808;29;20087;-76
2022/01/21 07:21:31;;;;;;;1.70;0.90;;;;;;;;;;4944428;29;20043;-75
2022/01/21 07:24:01;;;;;;;3.47;1.10;;;;;;;;;;4937427;29;20170;-75
2022/01/21 07:26:31;;;;;;;4.15;1.02;;;;;;;;;;4943705;29;20040;-75
2022/01/21 07:28:59;;;;;;;1.38;0.60;;;;;;;;;;4937670;29;20048;-75
2022/01/21 07:31:29;;;;;;;2.67;1.03;;;;;;;;;;4925509;29;20165;-75
2022/01/21 07:33:58;;;;;;;3.60;0.85;;;;;;;;;;4940167;29;20095;-75
2022/01/21 07:36:27;;;;;;;2.08;0.73;;;;;;;;;;4944856;29;20048;-75
2022/01/21 07:39:15;;;;;;;2.30;0.40;;;;;;;;;;4941923;29;20175;-75
2022/01/21 07:41:47;;;;;;;4.38;1.00;;;;;;;;;;4930939;29;20126;-75
2022/01/21 07:44:17;;;;;;;1.70;0.60;;;;;;;;;;4951170;29;20122;-77
2022/01/21 07:46:46;;;;;;;3.58;1.02;;;;;;;;;;4945083;29;20051;-75
2022/01/21 07:49:15;;;;;;;1.67;0.47;;;;;;;;;;4942909;29;20051;-75
2022/01/21 07:52:08;;;;;;;3.83;1.10;;;;;;;;;;4940111;29;20134;-75
2022/01/21 07:57:55;;;;;;;1.23;0.43;;;;;;;;;;4940477;29;20047;-75
2022/01/21 08:00:28;;;;;;;14.15;1.25;;;;;;;;;;4930060;29;20479;-74
2022/01/21 08:02:57;;;;;;;2.55;0.68;;;;;;;;;;4936549;29;20044;-75
2022/01/21 08:05:30;;;;;;;5.47;1.02;;;;;;;;;;4938566;29;20066;-74
2022/01/21 08:07:59;;;;;;;4.75;0.88;;;;;;;;;;4934962;29;20131;-75
2022/01/21 08:10:31;;;;;;;2.67;0.83;;;;;;;;;;4923923;29;20066;-75
2022/01/21 08:13:00;;;;;;;1.92;0.65;;;;;;;;;;4940083;29;20044;-75
2022/01/21 08:15:30;;;;;;;2.47;0.90;;;;;;;;;;4940700;29;20047;-75
2022/01/21 08:17:59;;;;;;;7.88;1.30;;;;;;;;;;4938453;29;20067;-75
2022/01/21 08:20:28;;;;;;;3.90;1.30;;;;;;;;;;4936580;29;20067;-74
2022/01/21 08:22:57;;;;;;;2.90;1.00;;;;;;;;;;4940327;29;20039;-75
2022/01/21 08:25:26;;;;;;;8.95;2.33;;;;;;;;;;4937639;29;20075;-74
2022/01/21 08:27:56;;;;;;;4.50;1.23;;;;;;;;;;4933339;29;20036;-74
2022/01/21 08:30:25;;;;;;;6.22;0.95;;;;;;;;;;4936719;29;20055;-75
2022/01/21 08:32:54;;;;;;;10.20;1.35;;;;;;;;;;4936881;29;20059;-74
2022/01/21 08:35:23;;;;;;;3.67;1.53;;;;;;;;;;4925433;29;20043;-75
2022/01/21 08:38:16;;;;;;;1.98;0.85;;;;;;;;;;4941200;29;20055;-75
2022/01/21 08:40:46;;;;;;;6.82;1.40;;;;;;;;;;4938395;29;20052;-74
2022/01/21 08:43:16;;;;;;;3.42;1.20;;;;;;;;;;4923193;29;20051;-75
2022/01/21 08:45:45;;;;;;;1.98;1.13;;;;;;;;;;4938431;29;20054;-75
2022/01/21 08:48:13;;;;;;;2.70;1.10;;;;;;;;;;4935787;29;20047;-75
2022/01/21 08:50:43;;;;;;;3.38;1.23;;;;;;;;;;4937758;29;20055;-75
2022/01/21 08:53:36;;;;;;;4.00;1.67;;;;;;;;;;4906051;29;20044;-75
2022/01/21 08:56:13;;;;;;;5.85;1.77;;;;;;;;;;4931232;29;20052;-75
2022/01/21 08:58:44;;;;;;;9.32;1.13;;;;;;;;;;4930525;29;20039;-75
2022/01/21 09:01:15;;;;;;;5.33;0.90;;;;;;;;;;4920872;29;20048;-75
2022/01/21 09:03:46;;;;;;;4.43;0.88;;;;;;;;;;4939559;29;20048;-74
2022/01/21 09:06:18;;;;;;;9.70;1.73;;;;;;;;;;4939880;29;20052;-77
2022/01/21 09:08:49;;;;;;;3.50;1.10;;;;;;;;;;4922419;29;20052;-75
2022/01/21 09:11:18;;;;;;;2.55;1.27;;;;;;;;;;4917427;29;20055;-74
2022/01/21 09:13:49;;;;;;;6.53;1.40;;;;;;;;;;4931532;29;20058;-75
2022/01/21 09:16:19;;;;;;;6.40;1.50;;;;;;;;;;4935204;29;20397;-75
2022/01/21 09:18:51;;;;;;;7.30;1.33;;;;;;;;;;4937083;29;20409;-75
2022/01/21 09:21:31;;;;;;;3.28;1.30;;;;;;;;;;4940499;29;20052;-75
2022/01/21 09:24:00;;;;;;;4.97;1.30;;;;;;;;;;4930155;29;20051;-75
2022/01/21 09:26:28;;;;;;;7.23;0.83;;;;;;;;;;4938906;29;20400;-75
2022/01/21 09:29:00;;;;;;;6.57;1.27;;;;;;;;;;4938313;29;20439;-75
2022/01/21 09:31:29;;;;;;;4.65;1.13;;;;;;;;;;4937444;29;20052;-75
2022/01/21 09:34:17;;;;;;;5.20;1.50;;;;;;;;;;4929949;29;20104;-75
2022/01/21 09:36:46;;;;;;;2.90;1.02;;;;;;;;;;4937751;29;20402;-75
2022/01/21 09:39:41;;;;;;;1.87;0.70;;;;;;;;;;4936824;29;20490;-74
2022/01/21 09:42:12;;;;;;;4.45;1.60;;;;;;;;;;4936098;29;20061;-75
2022/01/21 09:44:46;;;;;;;9.38;1.55;;;;;;;;;;4938910;29;20430;-75
2022/01/21 09:47:16;;;;;;;3.78;0.88;;;;;;;;;;4931699;29;20110;-75
2022/01/21 09:49:45;;;;;;;4.53;1.02;;;;;;;;;;4919854;29;20047;-75
2022/01/21 09:52:16;;;;;;;2.50;1.20;;;;;;;;;;4935377;29;20035;-74
2022/01/21 09:54:48;;;;;;;2.78;1.00;;;;;;;;;;4936686;29;20087;-75
2022/01/21 10:00:15;;;;;;;2.95;1.50;;;;;;;;;;4937646;29;20071;-75
2022/01/21 10:03:33;;;;;;;4.53;1.58;;;;;;;;;;4934257;29;20842;-75
2022/01/21 10:06:03;;;;;;;2.37;0.77;;;;;;;;;;4940795;29;20063;-75
2022/01/21 10:08:33;;;;;;;4.13;1.13;;;;;;;;;;4936758;29;20116;-75
2022/01/21 10:11:03;;;;;;;3.00;1.27;;;;;;;;;;4941096;29;20126;-75
2022/01/21 10:13:34;;;;;;;7.43;1.73;;;;;;;;;;4934890;29;20050;-77
2022/01/21 10:19:01;;;;;;;2.43;0.97;;;;;;;;;;4941331;29;20058;-75
2022/01/21 10:21:31;;;;;;;2.13;0.90;;;;;;;;;;4921902;29;20048;-75
2022/01/21 10:24:07;;;;;;;3.92;0.90;;;;;;;;;;4938666;29;20054;-75
2022/01/21 10:26:36;;;;;;;4.30;0.90;;;;;;;;;;4930415;29;20044;-75
2022/01/21 10:29:05;;;;;;;2.60;1.45;;;;;;;;;;4939012;29;20043;-75
2022/01/21 10:31:35;;;;;;;2.30;0.90;;;;;;;;;;4937218;29;20051;-72
2022/01/21 10:34:05;;;;;;;9.07;1.27;;;;;;;;;;4937800;29;20426;-74
2022/01/21 10:36:35;;;;;;;3.03;1.27;;;;;;;;;;4930024;29;20047;-76
2022/01/21 10:39:10;;;;;;;6.00;1.77;;;;;;;;;;4939343;29;20035;-76
2022/01/21 10:42:05;;;;;;;4.70;1.20;;;;;;;;;;4937763;29;20503;-76
2022/01/21 10:44:34;;;;;;;7.93;1.60;;;;;;;;;;4929431;29;20062;-76
2022/01/21 10:47:07;;;;;;;2.35;1.40;;;;;;;;;;4917104;29;20044;-75
2022/01/21 10:49:39;;;;;;;4.82;1.33;;;;;;;;;;4926603;29;20099;-76
2022/01/21 10:52:09;;;;;;;3.00;1.38;;;;;;;;;;4924348;29;20787;-78
2022/01/21 10:54:42;;;;;;;3.90;1.48;;;;;;;;;;4934644;29;20046;-76
2022/01/21 11:00:12;;;;;;;4.65;1.30;;;;;;;;;;4941023;29;20051;-75
2022/01/21 11:02:47;;;;;;;7.20;1.58;;;;;;;;;;4939320;29;20047;-76
2022/01/21 11:05:29;;;;;;;4.40;1.83;;;;;;;;;;4940812;29;20055;-77
2022/01/21 11:08:01;;;;;;;7.65;2.00;;;;;;;;;;4928055;29;20035;-76
2022/01/21 11:10:46;;;;;;;4.80;1.70;;;;;;;;;;4940078;29;20056;-75
2022/01/21 11:13:31;;;;;;;8.02;1.98;;;;;;;;;;4941982;29;20043;-76
2022/01/21 11:16:01;;;;;;;3.33;1.10;;;;;;;;;;4943977;29;20480;-76
2022/01/21 11:18:54;;;;;;;6.80;1.00;;;;;;;;;;4941367;29;20134;-77
2022/01/21 11:21:23;;;;;;;8.93;1.13;;;;;;;;;;4930054;29;20054;-74
2022/01/21 11:23:52;;;;;;;8.33;1.40;;;;;;;;;;4930451;29;20479;-75
2022/01/21 11:26:21;;;;;;;2.97;0.90;;;;;;;;;;4930062;29;20120;-74
2022/01/21 11:28:51;;;;;;;4.70;1.13;;;;;;;;;;4929160;29;20039;-76
2022/01/21 11:31:44;;;;;;;3.10;1.42;;;;;;;;;;4947544;29;20062;-76
2022/01/21 11:34:39;;;;;;;3.85;1.35;;;;;;;;;;4939659;29;20063;-75
2022/01/21 11:37:09;;;;;;;6.37;1.83;;;;;;;;;;4941247;29;20497;-75
2022/01/21 11:39:38;;;;;;;4.28;1.33;;;;;;;;;;4941669;29;20049;-77
2022/01/21 11:42:08;;;;;;;3.83;0.98;;;;;;;;;;4938451;29;20134;-78
2022/01/21 11:44:38;;;;;;;4.13;1.30;;;;;;;;;;4939746;29;20062;-75
2022/01/21 11:47:28;;;;;;;5.05;1.02;;;;;;;;;;4937056;29;20150;-75
2022/01/21 11:49:59;;;;;;;3.47;1.10;;;;;;;;;;4932884;29;20036;-75
2022/01/21 11:52:31;;;;;;;6.90;0.40;;;;;;;;;;4936459;29;20071;-75
2022/01/21 11:55:00;;;;;;;1.95;0.88;;;;;;;;;;4944402;29;20122;-75
2022/01/21 11:58:11;;;;;;;4.53;1.35;;;;;;;;;;4941438;29;20049;-75
2022/01/21 12:00:40;;;;;;;3.20;0.82;;;;;;;;;;4939052;29;20127;-74
2022/01/21 12:03:11;;;;;;;3.07;1.53;;;;;;;;;;4925235;29;20098;-75
2022/01/21 12:05:41;;;;;;;2.40;0.73;;;;;;;;;;4936951;29;20048;-74
2022/01/21 12:08:11;;;;;;;2.95;1.50;;;;;;;;;;4932269;29;20047;-74
2022/01/21 12:10:41;;;;;;;5.05;1.23;;;;;;;;;;4937954;29;20055;-75
2022/01/21 12:13:14;;;;;;;3.90;0.90;;;;;;;;;;4939231;29;20044;-75
2022/01/21 12:15:55;;;;;;;2.73;1.20;;;;;;;;;;4933521;29;20071;-74
2022/01/21 12:21:41;;;;;;;7.60;0.98;;;;;;;;;;4926910;29;20059;-76
2022/01/21 12:24:10;;;;;;;2.47;0.63;;;;;;;;;;4936741;29;20074;-75
2022/01/21 12:26:56;;;;;;;5.13;1.20;;;;;;;;;;4937493;29;20039;-75
2022/01/21 12:29:26;;;;;;;6.70;0.90;;;;;;;;;;4929621;29;20099;-75
2022/01/21 12:32:00;;;;;;;2.80;1.00;;;;;;;;;;4923505;29;20595;-77
2022/01/21 12:34:30;;;;;;;4.15;1.25;;;;;;;;;;4933821;29;20410;-77
2022/01/21 12:37:07;;;;;;;5.97;1.15;;;;;;;;;;4927515;29;20116;-77
2022/01/21 12:39:39;;;;;;;4.47;1.75;;;;;;;;;;4922759;29;20051;-75
2022/01/21 12:42:35;;;;;;;6.70;1.97;;;;;;;;;;4908459;29;20048;-74
2022/01/21 12:45:23;;;;;;;2.42;1.02;;;;;;;;;;4905298;29;20063;-77
2022/01/21 12:47:53;;;;;;;5.93;1.55;;;;;;;;;;4923593;29;20103;-77
2022/01/21 12:50:46;;;;;;;2.83;0.95;;;;;;;;;;4910036;29;20048;-77
2022/01/21 12:53:26;;;;;;;4.00;1.40;;;;;;;;;;4917366;29;20559;-75
2022/01/21 12:56:03;;;;;;;3.10;1.63;;;;;;;;;;4903503;29;20083;-75
2022/01/21 12:58:33;;;;;;;2.80;1.20;;;;;;;;;;4904027;29;20380;-75
2022/01/21 13:01:27;;;;;;;7.15;1.35;;;;;;;;;;4913727;29;20047;-75
2022/01/21 13:04:00;;;;;;;3.05;1.05;;;;;;;;;;4924140;29;20043;-75
2022/01/21 13:06:34;;;;;;;1.85;1.20;;;;;;;;;;4902562;29;20041;-77
2022/01/21 13:09:07;;;;;;;3.00;1.07;;;;;;;;;;4922380;29;20055;-75
2022/01/21 13:11:39;;;;;;;5.78;1.85;;;;;;;;;;4920159;29;20127;-78
2022/01/21 13:14:33;;;;;;;5.03;1.10;;;;;;;;;;4914843;29;20045;-77
2022/01/21 13:17:04;;;;;;;9.65;2.10;;;;;;;;;;4915557;29;20040;-76
2022/01/21 13:19:43;;;;;;;4.75;1.00;;;;;;;;;;4920874;29;20075;-76
2022/01/21 13:22:15;;;;;;;4.77;1.67;;;;;;;;;;4916329;29;20054;-76
2022/01/21 13:25:04;;;;;;;4.68;1.50;;;;;;;;;;4920248;29;20052;-76
2022/01/21 13:27:33;;;;;;;8.52;1.90;;;;;;;;;;4922892;29;20047;-76
2022/01/21 13:30:03;;;;;;;3.63;1.77;;;;;;;;;;4895871;29;20058;-76
2022/01/21 13:32:31;;;;;;;3.35;1.98;;;;;;;;;;4911942;29;20046;-76
2022/01/21 13:35:09;;;;;;;4.33;0.87;;;;;;;;;;4916464;29;21326;-76
2022/01/21 13:37:39;;;;;;;7.70;1.30;;;;;;;;;;4911750;29;20072;-76
2022/01/21 13:40:11;;;;;;;3.10;1.10;;;;;;;;;;4916004;29;20111;-76
2022/01/21 13:42:40;;;;;;;3.28;1.92;;;;;;;;;;4942829;29;20103;-76
2022/01/21 13:45:11;;;;;;;3.80;1.40;;;;;;;;;;4934465;29;20054;-75
2022/01/21 13:47:42;;;;;;;3.90;1.70;;;;;;;;;;4931546;29;20518;-76
2022/01/21 13:50:13;;;;;;;1.63;0.80;;;;;;;;;;4929524;29;20580;-76
2022/01/21 13:52:44;;;;;;;7.30;1.63;;;;;;;;;;4935301;29;20051;-76
2022/01/21 13:55:27;;;;;;;5.75;1.40;;;;;;;;;;4933281;29;20470;-76
2022/01/21 13:57:56;;;;;;;3.50;1.35;;;;;;;;;;4931687;29;20047;-77
2022/01/21 14:00:32;;;;;;;2.87;1.63;;;;;;;;;;4935950;29;20050;-77
2022/01/21 14:03:01;;;;;;;2.22;1.25;;;;;;;;;;4931025;29;20406;-77
2022/01/21 14:05:55;;;;;;;6.13;0.77;;;;;;;;;;4945487;29;20126;-76
2022/01/21 14:08:50;;;;;;;3.05;1.10;;;;;;;;;;4929203;29;20082;-76
2022/01/21 14:11:26;;;;;;;7.00;1.30;;;;;;;;;;4935075;29;20088;-76
2022/01/21 14:13:59;;;;;;;4.17;1.70;;;;;;;;;;4936845;29;20043;-76
2022/01/21 14:16:29;;;;;;;1.98;0.93;;;;;;;;;;4938397;29;20131;-76
2022/01/21 14:19:00;;;;;;;1.88;0.63;;;;;;;;;;4920072;29;20044;-77
2022/01/21 14:21:30;;;;;;;3.58;1.42;;;;;;;;;;4929303;29;20051;-77
2022/01/21 14:24:08;;;;;;;3.97;1.35;;;;;;;;;;4936948;29;20043;-77
2022/01/21 14:26:42;;;;;;;2.13;1.17;;;;;;;;;;4928704;29;20067;-76
2022/01/21 14:29:11;;;;;;;3.83;1.25;;;;;;;;;;4940605;29;20052;-77
2022/01/21 14:31:43;;;;;;;3.78;1.10;;;;;;;;;;4936345;29;20062;-77
2022/01/21 14:34:22;;;;;;;3.05;1.35;;;;;;;;;;4937023;29;20495;-76
2022/01/21 14:37:03;;;;;;;3.35;1.25;;;;;;;;;;4924216;29;20517;-77
2022/01/21 14:39:35;;;;;;;5.20;1.97;;;;;;;;;;4934643;29;20054;-77
2022/01/21 14:42:06;;;;;;;6.57;1.63;;;;;;;;;;4927001;29;20059;-76
2022/01/21 14:44:36;;;;;;;4.00;1.15;;;;;;;;;;4935963;29;20047;-77
2022/01/21 14:47:09;;;;;;;2.85;1.15;;;;;;;;;;4936151;29;20379;-77
2022/01/21 14:49:39;;;;;;;4.10;1.73;;;;;;;;;;4920039;29;20043;-76
2022/01/21 14:57:54;;;;;;;3.13;1.13;;;;;;;;;;4938332;29;20040;-76
2022/01/21 15:00:48;;;;;;;5.03;1.77;;;;;;;;;;4927832;29;20507;-76
2022/01/21 15:03:19;;;;;;;3.13;1.25;;;;;;;;;;4937098;29;20047;-76
2022/01/21 15:05:49;;;;;;;5.77;2.13;;;;;;;;;;4922791;29;20118;-75
2022/01/21 15:08:31;;;;;;;5.50;1.77;;;;;;;;;;4921702;29;20379;-76
2022/01/21 15:11:42;;;;;;;7.10;1.83;;;;;;;;;;4922395;29;20502;-76
2022/01/21 15:16:57;;;;;;;4.35;2.00;;;;;;;;;;4946707;29;20067;-76
2022/01/21 15:19:30;;;;;;;8.07;1.03;;;;;;;;;;4930686;29;20051;-76
2022/01/21 15:21:59;;;;;;;2.50;1.38;;;;;;;;;;4937068;29;20501;-76
2022/01/21 15:24:29;;;;;;;3.88;1.98;;;;;;;;;;4934514;29;20043;-76
2022/01/21 15:26:58;;;;;;;12.05;1.50;;;;;;;;;;4920399;29;20063;-76
2022/01/21 15:29:29;;;;;;;4.28;1.77;;;;;;;;;;4936542;29;20043;-76
2022/01/21 15:31:57;;;;;;;2.17;1.37;;;;;;;;;;4935014;29;20066;-76
2022/01/21 15:34:26;;;;;;;7.57;1.52;;;;;;;;;;4935356;29;20292;-76
2022/01/21 15:37:00;;;;;;;6.53;2.22;;;;;;;;;;4936568;29;20043;-77
2022/01/21 15:39:29;;;;;;;5.70;1.95;;;;;;;;;;4945701;29;20041;-76
2022/01/21 15:42:00;;;;;;;5.80;1.15;;;;;;;;;;4938784;29;20051;-76
2022/01/21 15:44:30;;;;;;;5.50;1.30;;;;;;;;;;4942524;29;20047;-76
2022/01/21 15:46:59;;;;;;;3.15;1.40;;;;;;;;;;4939345;29;20047;-76
2022/01/21 15:49:28;;;;;;;5.22;2.55;;;;;;;;;;4944190;29;20135;-76
2022/01/21 15:51:58;;;;;;;3.53;1.17;;;;;;;;;;4939256;29;20079;-76
2022/01/21 15:54:26;;;;;;;2.13;1.17;;;;;;;;;;4945518;29;20131;-76
2022/01/21 15:56:58;;;;;;;4.03;1.83;;;;;;;;;;4932577;29;20059;-76
2022/01/21 15:59:27;;;;;;;5.20;2.15;;;;;;;;;;4942673;29;21010;-76
2022/01/21 16:01:57;;;;;;;3.35;1.33;;;;;;;;;;4938708;29;20075;-76
2022/01/21 16:04:26;;;;;;;5.60;1.67;;;;;;;;;;4929407;29;20077;-76
2022/01/21 16:06:55;;;;;;;6.88;2.15;;;;;;;;;;4935252;29;20051;-76
2022/01/21 16:09:24;;;;;;;4.80;1.57;;;;;;;;;;4925120;29;20054;-76
2022/01/21 16:11:54;;;;;;;3.00;1.17;;;;;;;;;;4935033;29;20495;-76
2022/01/21 16:14:24;;;;;;;2.50;1.17;;;;;;;;;;4936470;29;20040;-76
2022/01/21 16:16:52;;;;;;;4.10;2.22;;;;;;;;;;4925486;29;20042;-76
2022/01/21 16:19:23;;;;;;;5.93;1.40;;;;;;;;;;4938914;29;20079;-76
2022/01/21 16:21:53;;;;;;;6.90;2.50;;;;;;;;;;4912274;29;20044;-76
2022/01/21 16:24:22;;;;;;;5.32;2.17;;;;;;;;;;4929326;29;20063;-76
2022/01/21 16:26:51;;;;;;;4.43;1.77;;;;;;;;;;4929552;29;20127;-76
2022/01/21 16:29:20;;;;;;;5.55;2.38;;;;;;;;;;4929275;29;20050;-76
2022/01/21 16:32:14;;;;;;;5.20;2.38;;;;;;;;;;4925185;29;20047;-76